createdAt,value
2022-08-05T00:01:20.717Z,4.13
2022-08-05T00:04:11.612Z,3.35
2022-08-05T00:06:56.220Z,4.40
2022-08-05T00:09:40.284Z,3.25
2022-08-05T00:12:26.788Z,3.60
2022-08-05T00:15:54.126Z,3.30
2022-08-05T00:18:21.319Z,3.20
2022-08-05T00:21:06.849Z,2.80
2022-08-05T00:24:10.028Z,3.22
2022-08-05T00:26:54.878Z,2.67
2022-08-05T00:29:38.088Z,3.05
2022-08-05T00:32:21.033Z,2.45
2022-08-05T00:35:09.071Z,2.22
2022-08-05T00:37:53.862Z,2.40
2022-08-05T00:40:46.884Z,2.10
2022-08-05T00:43:41.577Z,2.03
2022-08-05T00:46:36.916Z,2.00
2022-08-05T00:49:26.186Z,1.90
2022-08-05T00:52:16.761Z,1.90
2022-08-05T00:55:00.265Z,1.80
2022-08-05T00:57:58.212Z,1.80
2022-08-05T01:00:43.444Z,1.42
2022-08-05T01:03:31.111Z,1.38
2022-08-05T01:06:16.195Z,1.25
2022-08-05T01:09:00.553Z,1.00
2022-08-05T01:11:48.271Z,1.23
2022-08-05T01:14:34.770Z,1.20
2022-08-05T01:17:30.678Z,1.00
2022-08-05T01:20:27.430Z,1.10
2022-08-05T01:23:20.064Z,1.08
2022-08-05T01:26:26.282Z,1.10
2022-08-05T01:29:14.723Z,1.10
2022-08-05T01:32:01.654Z,1.00
2022-08-05T01:34:50.757Z,1.20
2022-08-05T01:37:36.574Z,1.20
2022-08-05T01:40:20.718Z,1.20
2022-08-05T01:43:22.465Z,1.13
2022-08-05T01:46:41.519Z,0.98
2022-08-05T01:49:24.772Z,1.10
2022-08-05T01:52:17.590Z,1.00
2022-08-05T01:55:04.470Z,1.20
2022-08-05T01:58:11.438Z,1.05
2022-08-05T02:00:52.412Z,0.90
2022-08-05T02:03:38.243Z,1.10
2022-08-05T02:06:37.738Z,1.20
2022-08-05T02:09:21.354Z,1.00
2022-08-05T02:12:06.949Z,1.15
2022-08-05T02:14:54.412Z,1.10
2022-08-05T02:18:28.204Z,1.42
2022-08-05T02:20:48.621Z,1.15
2022-08-05T02:23:35.653Z,1.10
2022-08-05T02:26:21.930Z,0.93
2022-08-05T02:29:05.143Z,1.10
2022-08-05T02:32:00.392Z,1.00
2022-08-05T02:34:54.523Z,1.02
2022-08-05T02:37:39.904Z,0.90
2022-08-05T02:40:24.106Z,1.23
2022-08-05T02:43:07.386Z,1.10
2022-08-05T02:45:52.366Z,1.17
2022-08-05T02:48:37.971Z,1.10
2022-08-05T02:52:01.067Z,0.88
2022-08-05T02:54:35.755Z,1.10
2022-08-05T02:58:11.605Z,1.45
2022-08-05T03:00:22.775Z,1.98
2022-08-05T03:03:10.533Z,1.50
2022-08-05T03:06:54.183Z,1.27
2022-08-05T03:08:56.532Z,1.70
2022-08-05T03:11:54.456Z,1.75
2022-08-05T03:14:46.176Z,1.17
2022-08-05T03:17:30.863Z,1.40
2022-08-05T03:20:13.860Z,1.60
2022-08-05T03:22:58.082Z,1.60
2022-08-05T03:26:29.913Z,1.20
2022-08-05T03:28:45.093Z,1.40
2022-08-05T03:31:55.937Z,1.17
2022-08-05T03:34:31.741Z,1.40
2022-08-05T03:37:14.409Z,1.48
2022-08-05T03:39:59.089Z,1.35
2022-08-05T03:42:52.542Z,1.20
2022-08-05T03:45:57.254Z,1.20
2022-08-05T03:48:39.577Z,1.10
2022-08-05T03:52:48.779Z,1.40
2022-08-05T03:56:03.759Z,1.30
2022-08-05T03:57:42.553Z,1.20
2022-08-05T04:00:29.928Z,1.48
2022-08-05T04:03:28.535Z,1.25
2022-08-05T04:06:21.136Z,1.33
2022-08-05T04:09:05.941Z,1.27
2022-08-05T04:11:50.685Z,1.30
2022-08-05T04:14:35.333Z,1.00
2022-08-05T04:17:18.087Z,1.10
2022-08-05T04:20:03.293Z,1.05
2022-08-05T04:22:47.851Z,1.55
2022-08-05T04:25:56.930Z,1.10
2022-08-05T04:28:34.402Z,1.20
2022-08-05T04:31:20.580Z,1.30
2022-08-05T04:34:31.306Z,1.20
2022-08-05T04:37:07.477Z,1.13
2022-08-05T04:39:52.938Z,1.20
2022-08-05T04:42:38.354Z,1.40
2022-08-05T04:45:47.890Z,1.40
2022-08-05T04:48:28.547Z,1.27
2022-08-05T04:51:17.954Z,1.40
2022-08-05T04:54:02.337Z,1.25
2022-08-05T04:56:45.124Z,1.33
2022-08-05T04:59:38.590Z,1.38
2022-08-05T05:02:37.701Z,1.30
2022-08-05T05:05:28.394Z,1.38
2022-08-05T05:08:14.125Z,1.30
2022-08-05T05:11:41.485Z,1.50
2022-08-05T05:14:28.003Z,1.52
2022-08-05T05:17:14.447Z,1.73
2022-08-05T05:19:57.107Z,1.52
2022-08-05T05:22:40.888Z,1.92
2022-08-05T05:25:40.469Z,1.70
2022-08-05T05:28:25.180Z,1.50
2022-08-05T05:31:08.789Z,1.67
2022-08-05T05:34:02.194Z,1.67
2022-08-05T05:36:45.704Z,1.67
2022-08-05T05:39:34.507Z,1.88
2022-08-05T05:42:18.328Z,1.58
2022-08-05T05:45:05.242Z,1.70
2022-08-05T05:48:06.141Z,1.73
2022-08-05T05:50:51.855Z,1.52
2022-08-05T05:53:54.184Z,1.38
2022-08-05T05:56:37.334Z,2.00
2022-08-05T05:59:20.184Z,1.98
2022-08-05T06:02:04.473Z,1.90
2022-08-05T06:04:50.403Z,1.67
2022-08-05T06:07:41.660Z,1.60
2022-08-05T06:10:25.277Z,1.83
2022-08-05T06:13:12.253Z,1.80
2022-08-05T06:16:31.210Z,1.60
2022-08-05T06:19:00.275Z,1.83
2022-08-05T06:21:49.641Z,1.90
2022-08-05T06:24:32.679Z,1.60
2022-08-05T06:28:09.497Z,2.00
2022-08-05T06:30:21.120Z,1.70
2022-08-05T06:33:04.182Z,1.60
2022-08-05T06:36:07.427Z,1.90
2022-08-05T06:39:16.216Z,1.70
2022-08-05T06:42:01.215Z,1.67
2022-08-05T06:44:47.126Z,1.75
2022-08-05T06:48:36.593Z,1.92
2022-08-05T06:50:34.832Z,1.70
2022-08-05T06:53:22.737Z,1.77
2022-08-05T06:56:26.313Z,1.80
2022-08-05T06:59:11.887Z,1.80
2022-08-05T07:01:54.698Z,1.73
2022-08-05T07:04:37.640Z,1.90
2022-08-05T07:07:24.251Z,1.67
2022-08-05T07:10:19.972Z,1.60
2022-08-05T07:13:57.146Z,1.60
2022-08-05T07:18:09.381Z,1.85
2022-08-05T07:20:31.277Z,1.52
2022-08-05T07:22:47.830Z,1.58
2022-08-05T07:25:54.687Z,1.58
2022-08-05T07:28:34.758Z,1.70
2022-08-05T07:31:20.533Z,1.58
2022-08-05T07:34:28.443Z,1.50
2022-08-05T07:37:11.789Z,1.85
2022-08-05T07:40:04.759Z,1.60
2022-08-05T07:42:58.717Z,1.30
2022-08-05T07:45:56.712Z,1.50
2022-08-05T07:49:02.006Z,1.27
2022-08-05T07:51:53.423Z,1.52
2022-08-05T07:54:38.598Z,1.25
2022-08-05T07:57:56.322Z,1.48
2022-08-05T08:00:34.259Z,1.38
2022-08-05T08:03:16.957Z,1.40
2022-08-05T08:06:04.471Z,1.67
2022-08-05T08:08:48.054Z,1.40
2022-08-05T08:11:47.642Z,1.27
2022-08-05T08:14:35.844Z,1.23
2022-08-05T08:17:21.312Z,1.42
2022-08-05T08:20:42.674Z,1.38
2022-08-05T08:23:11.546Z,1.42
2022-08-05T08:26:17.523Z,1.35
2022-08-05T08:29:29.406Z,1.20
2022-08-05T08:32:12.730Z,1.45
2022-08-05T08:35:02.748Z,1.00
2022-08-05T08:37:45.539Z,1.50
2022-08-05T08:40:36.450Z,1.30
2022-08-05T08:44:57.894Z,1.30
2022-08-05T08:46:23.562Z,1.30
2022-08-05T08:50:11.319Z,1.42
2022-08-05T08:52:14.356Z,0.82
2022-08-05T08:54:57.820Z,1.10
2022-08-05T08:57:58.120Z,1.00
2022-08-05T09:00:41.683Z,1.10
2022-08-05T09:03:24.850Z,1.13
2022-08-05T09:06:11.093Z,1.10
2022-08-05T09:09:05.095Z,1.23
2022-08-05T09:11:52.711Z,1.05
2022-08-05T09:14:58.931Z,1.20
2022-08-05T09:17:45.778Z,1.10
2022-08-05T09:20:37.876Z,1.13
2022-08-05T09:23:22.078Z,0.98
2022-08-05T09:26:21.147Z,1.20
2022-08-05T09:29:08.948Z,1.30
2022-08-05T09:32:45.740Z,1.33
2022-08-05T09:35:11.391Z,1.00
2022-08-05T09:38:11.927Z,0.93
2022-08-05T09:41:04.321Z,0.90
2022-08-05T09:43:49.372Z,0.90
2022-08-05T09:46:33.012Z,0.80
2022-08-05T09:49:24.020Z,0.85
2022-08-05T09:52:27.533Z,0.88
2022-08-05T09:55:58.036Z,0.80
2022-08-05T09:58:14.519Z,0.70
2022-08-05T10:01:00.029Z,0.80
2022-08-05T10:03:56.951Z,1.13
2022-08-05T10:06:49.802Z,0.90
2022-08-05T10:10:13.749Z,0.80
2022-08-05T10:12:58.515Z,0.80
2022-08-05T10:15:41.502Z,0.95
2022-08-05T10:18:27.324Z,0.90
2022-08-05T10:21:16.257Z,1.10
2022-08-05T10:24:00.986Z,1.00
2022-08-05T10:26:51.604Z,0.80
2022-08-05T10:30:06.820Z,0.70
2022-08-05T10:32:52.565Z,0.88
2022-08-05T10:35:45.431Z,1.05
2022-08-05T10:38:33.236Z,1.08
2022-08-05T10:41:23.385Z,0.93
2022-08-05T10:44:07.430Z,0.65
2022-08-05T10:46:54.461Z,0.80
2022-08-05T10:50:32.937Z,0.60
2022-08-05T10:53:01.706Z,0.70
2022-08-05T10:56:05.315Z,0.82
2022-08-05T10:59:07.318Z,0.82
2022-08-05T11:02:08.571Z,0.80
2022-08-05T11:04:57.044Z,1.00
2022-08-05T11:08:02.711Z,0.80
2022-08-05T11:11:00.947Z,0.90
2022-08-05T11:13:55.020Z,0.80
2022-08-05T11:16:56.695Z,1.00
2022-08-05T11:20:11.500Z,0.80
2022-08-05T11:22:54.120Z,1.00
2022-08-05T11:26:05.895Z,0.60
2022-08-05T11:28:49.003Z,0.60
2022-08-05T11:31:56.360Z,0.63
2022-08-05T11:34:50.767Z,0.60
2022-08-05T11:38:26.768Z,0.90
2022-08-05T11:41:14.210Z,0.80
2022-08-05T11:44:08.384Z,0.75
2022-08-05T11:46:58.113Z,0.70
2022-08-05T11:49:42.788Z,0.60
2022-08-05T11:52:29.493Z,0.60
2022-08-05T11:55:14.641Z,0.70
2022-08-05T11:58:10.290Z,0.63
2022-08-05T12:01:03.747Z,0.70
2022-08-05T12:03:57.478Z,0.60
2022-08-05T12:06:40.230Z,0.70
2022-08-05T12:09:52.762Z,0.80
2022-08-05T12:12:36.650Z,0.80
2022-08-05T12:15:37.954Z,0.68
2022-08-05T12:18:32.637Z,0.85
2022-08-05T12:21:17.411Z,0.70
2022-08-05T12:24:05.099Z,0.90
2022-08-05T12:26:51.093Z,0.70
2022-08-05T12:29:38.623Z,0.77
2022-08-05T12:32:22.053Z,1.02
2022-08-05T12:35:10.234Z,0.70
2022-08-05T12:37:53.375Z,0.75
2022-08-05T12:40:38.402Z,0.70
2022-08-05T12:43:26.459Z,0.82
2022-08-05T12:46:29.340Z,0.70
2022-08-05T12:49:14.645Z,0.90
2022-08-05T12:52:13.943Z,0.80
2022-08-05T12:55:01.694Z,0.70
2022-08-05T12:58:38.717Z,0.70
2022-08-05T13:02:01.382Z,0.60
2022-08-05T13:03:56.173Z,0.70
2022-08-05T13:06:51.964Z,0.60
2022-08-05T13:09:36.256Z,0.82
2022-08-05T13:12:19.703Z,0.77
2022-08-05T13:15:05.255Z,0.70
2022-08-05T13:17:55.013Z,0.60
2022-08-05T13:20:42.170Z,0.50
2022-08-05T13:23:26.038Z,0.70
2022-08-05T13:26:20.177Z,0.60
2022-08-05T13:29:06.143Z,0.70
2022-08-05T13:32:04.609Z,0.80
2022-08-05T13:34:47.946Z,0.75
2022-08-05T13:37:34.776Z,1.00
2022-08-05T13:40:35.509Z,0.55
2022-08-05T13:43:23.094Z,0.60
2022-08-05T13:46:05.934Z,0.68
2022-08-05T13:48:57.090Z,0.60
2022-08-05T13:51:46.603Z,0.70
2022-08-05T13:54:29.749Z,0.70
2022-08-05T13:57:15.015Z,0.63
2022-08-05T14:00:02.029Z,0.52
2022-08-05T14:02:52.025Z,0.68
2022-08-05T14:06:24.347Z,0.50
2022-08-05T14:08:37.441Z,0.60
2022-08-05T14:11:22.451Z,0.75
2022-08-05T14:14:05.242Z,0.80
2022-08-05T14:16:51.192Z,0.80
2022-08-05T14:19:54.615Z,0.70
2022-08-05T14:22:39.581Z,0.50
2022-08-05T14:25:32.764Z,0.70
2022-08-05T14:28:22.800Z,0.68
2022-08-05T14:31:54.337Z,0.70
2022-08-05T14:34:23.637Z,0.57
2022-08-05T14:37:06.731Z,0.65
2022-08-05T14:39:56.800Z,0.80
2022-08-05T14:42:41.250Z,0.70
2022-08-05T14:45:25.086Z,0.60
2022-08-05T14:48:09.359Z,0.80
2022-08-05T14:51:16.516Z,0.88
2022-08-05T14:54:26.094Z,0.80
2022-08-05T14:57:05.317Z,0.90
2022-08-05T14:59:56.611Z,0.90
2022-08-05T15:02:39.486Z,0.70
2022-08-05T15:05:22.460Z,0.70
2022-08-05T15:08:38.003Z,0.90
2022-08-05T15:11:17.053Z,0.90
2022-08-05T15:13:59.705Z,0.98
2022-08-05T15:16:43.122Z,0.90
2022-08-05T15:19:29.710Z,0.88
2022-08-05T15:22:14.198Z,0.90
2022-08-05T15:25:00.272Z,0.90
2022-08-05T15:27:54.792Z,1.00
2022-08-05T15:30:37.693Z,1.10
2022-08-05T15:34:04.786Z,1.00
2022-08-05T15:36:24.602Z,0.85
2022-08-05T15:41:01.807Z,1.02
2022-08-05T15:42:53.705Z,1.08
2022-08-05T15:45:15.370Z,1.00
2022-08-05T15:47:58.257Z,1.30
2022-08-05T15:50:43.818Z,1.00
2022-08-05T15:53:38.485Z,0.65
2022-08-05T15:56:31.270Z,0.60
2022-08-05T15:59:20.276Z,0.70
2022-08-05T16:02:09.259Z,0.40
2022-08-05T16:04:53.174Z,0.60
2022-08-05T16:07:36.174Z,0.52
2022-08-05T16:10:25.389Z,0.50
2022-08-05T16:13:09.604Z,0.70
2022-08-05T16:15:55.336Z,0.50
2022-08-05T16:18:52.243Z,0.68
2022-08-05T16:22:00.800Z,0.60
2022-08-05T16:24:41.164Z,0.60
2022-08-05T16:27:59.969Z,0.60
2022-08-05T16:30:36.599Z,0.60
2022-08-05T16:33:20.601Z,0.60
2022-08-05T16:36:03.695Z,0.50
2022-08-05T16:38:54.465Z,0.47
2022-08-05T16:42:14.655Z,0.60
2022-08-05T16:44:41.139Z,0.80
2022-08-05T16:47:35.944Z,0.60
2022-08-05T16:50:25.213Z,0.50
2022-08-05T16:53:12.474Z,0.50
2022-08-05T16:56:05.949Z,0.40
2022-08-05T16:58:49.533Z,0.40
2022-08-05T17:01:53.996Z,0.40
2022-08-05T17:04:35.157Z,0.30
2022-08-05T17:07:39.392Z,0.57
2022-08-05T17:10:30.533Z,0.60
2022-08-05T17:13:16.834Z,0.40
2022-08-05T17:16:27.629Z,0.30
2022-08-05T17:19:13.112Z,0.40
2022-08-05T17:21:55.880Z,0.30
2022-08-05T17:24:43.001Z,0.40
2022-08-05T17:27:33.704Z,0.30
2022-08-05T17:30:19.310Z,0.30
2022-08-05T17:33:11.621Z,0.40
2022-08-05T17:36:07.976Z,0.22
2022-08-05T17:38:53.159Z,0.30
2022-08-05T17:42:28.494Z,0.30
2022-08-05T17:44:40.054Z,0.30
2022-08-05T17:47:33.262Z,0.20
2022-08-05T17:50:17.974Z,0.30
2022-08-05T17:53:10.730Z,0.20
2022-08-05T17:55:54.558Z,0.30
2022-08-05T17:58:39.577Z,0.25
2022-08-05T18:01:28.411Z,0.28
2022-08-05T18:04:31.152Z,0.32
2022-08-05T18:07:15.503Z,0.30
2022-08-05T18:10:10.168Z,0.28
2022-08-05T18:12:53.727Z,0.25
2022-08-05T18:15:38.762Z,0.28
2022-08-05T18:18:21.581Z,0.30
2022-08-05T18:21:13.403Z,0.30
2022-08-05T18:24:16.200Z,0.20
2022-08-05T18:26:58.921Z,0.20
2022-08-05T18:29:41.664Z,0.30
2022-08-05T18:32:28.047Z,0.20
2022-08-05T18:35:12.270Z,0.20
2022-08-05T18:37:55.317Z,0.20
2022-08-05T18:41:53.472Z,0.20
2022-08-05T18:43:42.719Z,0.30
2022-08-05T18:46:31.973Z,0.28
2022-08-05T18:49:57.117Z,0.30
2022-08-05T18:52:41.743Z,0.20
2022-08-05T18:55:34.446Z,0.45
2022-08-05T18:58:18.463Z,0.30
2022-08-05T19:01:05.314Z,0.30
2022-08-05T19:03:53.160Z,0.30
2022-08-05T19:06:45.292Z,0.22
2022-08-05T19:09:28.412Z,0.20
2022-08-05T19:12:22.210Z,0.30
2022-08-05T19:15:05.308Z,0.10
2022-08-05T19:18:08.218Z,0.20
2022-08-05T19:20:53.580Z,0.30
2022-08-05T19:24:05.952Z,0.20
2022-08-05T19:26:54.793Z,0.20
2022-08-05T19:29:39.722Z,0.20
2022-08-05T19:32:25.945Z,0.30
2022-08-05T19:35:10.265Z,0.30
2022-08-05T19:38:06.727Z,0.20
2022-08-05T19:40:52.578Z,0.10
2022-08-05T19:44:06.549Z,0.40
2022-08-05T19:46:43.812Z,0.47
2022-08-05T19:49:26.735Z,0.25
2022-08-05T19:52:31.016Z,0.22
2022-08-05T19:56:14.765Z,0.20
2022-08-05T19:58:28.863Z,0.20
2022-08-05T20:04:33.914Z,0.40
2022-08-05T20:07:47.340Z,0.20
2022-08-05T20:10:23.647Z,0.30
2022-08-05T20:13:07.235Z,0.30
2022-08-05T20:15:56.914Z,0.22
2022-08-05T20:18:40.815Z,0.30
2022-08-05T20:21:32.692Z,0.30
2022-08-05T20:24:16.169Z,0.20
2022-08-05T20:26:59.030Z,0.30
2022-08-05T20:29:41.961Z,0.20
2022-08-05T20:32:45.181Z,0.20
2022-08-05T20:35:28.382Z,0.30
2022-08-05T20:38:22.869Z,0.40
2022-08-05T20:41:10.505Z,0.28
2022-08-05T20:44:38.217Z,0.30
2022-08-05T20:47:21.175Z,0.40
2022-08-05T20:50:16.369Z,0.30
2022-08-05T20:53:00.800Z,0.40
2022-08-05T20:56:02.832Z,0.32
2022-08-05T20:58:47.631Z,0.20
2022-08-05T21:01:37.344Z,0.38
2022-08-05T21:04:21.461Z,0.40
2022-08-05T21:07:11.372Z,0.30
2022-08-05T21:09:54.999Z,0.50
2022-08-05T21:12:37.831Z,0.30
2022-08-05T21:15:21.884Z,0.38
2022-08-05T21:18:05.594Z,0.40
2022-08-05T21:20:48.360Z,0.50
2022-08-05T21:23:37.484Z,0.30
2022-08-05T21:26:21.806Z,0.45
2022-08-05T21:29:16.838Z,0.52
2022-08-05T21:32:00.032Z,0.40
2022-08-05T21:34:43.311Z,0.28
2022-08-05T21:37:26.035Z,0.30
2022-08-05T21:40:13.695Z,0.45
2022-08-05T21:42:59.033Z,0.40
2022-08-05T21:45:56.625Z,0.40
2022-08-05T21:48:40.781Z,0.30
2022-08-05T21:52:16.457Z,0.60
2022-08-05T21:54:27.865Z,0.50
2022-08-05T22:00:15.708Z,0.80
2022-08-05T22:02:58.563Z,0.32
2022-08-05T22:05:48.690Z,0.50
2022-08-05T22:08:32.144Z,0.40
2022-08-05T22:11:15.894Z,0.40
2022-08-05T22:14:34.516Z,0.50
2022-08-05T22:17:06.763Z,0.35
2022-08-05T22:20:01.036Z,0.45
2022-08-05T22:23:04.173Z,0.45
2022-08-05T22:26:17.095Z,0.60
2022-08-05T22:28:59.812Z,0.60
2022-08-05T22:31:45.291Z,0.52
2022-08-05T22:34:28.669Z,0.70
2022-08-05T22:37:12.006Z,0.50
2022-08-05T22:39:55.007Z,0.50
2022-08-05T22:42:41.143Z,0.50
2022-08-05T22:45:30.698Z,0.50
2022-08-05T22:48:14.896Z,0.40
2022-08-05T22:51:07.700Z,0.52
2022-08-05T22:53:50.410Z,0.63
2022-08-05T22:56:33.221Z,0.65
2022-08-05T22:59:45.331Z,0.40
2022-08-05T23:02:28.931Z,0.47
2022-08-05T23:05:13.986Z,0.60
2022-08-05T23:07:56.743Z,0.40
2022-08-05T23:10:39.631Z,0.40
2022-08-05T23:13:22.386Z,0.43
2022-08-05T23:16:08.886Z,0.30
2022-08-05T23:18:51.712Z,0.50
2022-08-05T23:21:42.997Z,0.50
2022-08-05T23:24:31.219Z,0.50
2022-08-05T23:27:14.047Z,0.50
2022-08-05T23:29:57.907Z,0.43
2022-08-05T23:32:45.071Z,0.40
2022-08-05T23:35:28.596Z,0.50
2022-08-05T23:38:18.952Z,0.57
2022-08-05T23:41:02.269Z,0.40
2022-08-05T23:44:05.389Z,0.47
2022-08-05T23:46:47.780Z,0.30
2022-08-05T23:49:35.639Z,0.40
2022-08-05T23:52:29.408Z,0.50
2022-08-05T23:55:15.069Z,0.47
2022-08-05T23:57:57.873Z,0.50
